createdAt,value
2023-02-21T00:00:40.000Z,7.9
2023-02-21T00:01:57.000Z,7.9
2023-02-21T00:03:13.000Z,7.9
2023-02-21T00:04:29.000Z,7.9
2023-02-21T00:05:45.703Z,7.9
2023-02-21T00:07:00.000Z,7.9
2023-02-21T00:08:16.000Z,7.9
2023-02-21T00:09:32.000Z,7.9
2023-02-21T00:10:49.000Z,7.9
2023-02-21T00:12:05.000Z,7.9
2023-02-21T00:13:21.000Z,7.9
2023-02-21T00:14:37.000Z,7.9
2023-02-21T00:15:53.000Z,7.9
2023-02-21T00:17:09.000Z,7.9
2023-02-21T00:18:25.000Z,7.9
2023-02-21T00:19:42.000Z,7.9
2023-02-21T00:20:58.000Z,7.9
2023-02-21T00:22:14.000Z,7.9
2023-02-21T00:23:29.000Z,7.9
2023-02-21T00:24:45.000Z,7.8
2023-02-21T00:26:01.000Z,7.8
2023-02-21T00:27:18.005Z,7.8
2023-02-21T00:28:34.000Z,7.8
2023-02-21T00:29:50.000Z,7.8
2023-02-21T00:31:06.000Z,7.8
2023-02-21T00:32:22.000Z,7.8
2023-02-21T00:33:38.000Z,7.8
2023-02-21T00:34:54.000Z,7.8
2023-02-21T00:36:11.000Z,7.8
2023-02-21T00:37:27.000Z,7.8
2023-02-21T00:38:43.000Z,7.8
2023-02-21T00:39:58.000Z,7.8
2023-02-21T00:41:14.000Z,7.8
2023-02-21T00:42:30.000Z,7.8
2023-02-21T00:43:46.000Z,7.8
2023-02-21T00:45:03.000Z,7.8
2023-02-21T00:46:19.000Z,7.8
2023-02-21T00:47:35.610Z,7.8
2023-02-21T00:48:51.000Z,7.8
2023-02-21T00:50:07.000Z,7.8
2023-02-21T00:51:23.000Z,7.8
2023-02-21T00:52:39.000Z,7.8
2023-02-21T00:53:56.335Z,7.8
2023-02-21T00:55:12.485Z,7.8
2023-02-21T00:56:27.000Z,7.8
2023-02-21T00:57:43.000Z,7.8
2023-02-21T00:58:59.000Z,7.8
2023-02-21T01:00:15.000Z,7.8
2023-02-21T01:01:32.000Z,7.8
2023-02-21T01:02:48.383Z,7.8
2023-02-21T01:04:04.000Z,7.8
2023-02-21T01:05:20.000Z,7.9
2023-02-21T01:06:36.000Z,7.8
2023-02-21T01:07:52.000Z,7.8
2023-02-21T01:09:08.000Z,7.8
2023-02-21T01:10:25.000Z,7.8
2023-02-21T01:11:41.000Z,7.8
2023-02-21T01:12:56.000Z,7.8
2023-02-21T01:14:12.000Z,7.8
2023-02-21T01:15:28.000Z,7.8
2023-02-21T01:16:44.000Z,7.8
2023-02-21T01:18:00.000Z,7.8
2023-02-21T01:19:17.000Z,7.8
2023-02-21T01:20:32.000Z,7.8
2023-02-21T01:21:48.000Z,7.8
2023-02-21T01:23:04.774Z,7.7
2023-02-21T01:24:20.000Z,7.7
2023-02-21T01:25:36.000Z,7.7
2023-02-21T01:26:52.000Z,7.7
2023-02-21T01:28:09.000Z,7.7
2023-02-21T01:29:25.000Z,7.7
2023-02-21T01:30:41.000Z,7.6
2023-02-21T01:31:57.000Z,7.6
2023-02-21T01:33:13.000Z,7.6
2023-02-21T01:34:29.000Z,7.5
2023-02-21T01:35:46.246Z,7.5
2023-02-21T01:37:01.000Z,7.5
2023-02-21T01:38:17.000Z,7.4
2023-02-21T01:39:33.000Z,7.4
2023-02-21T01:40:49.000Z,7.4
2023-02-21T01:42:05.000Z,7.4
2023-02-21T01:43:21.000Z,7.4
2023-02-21T01:44:38.000Z,7.4
2023-02-21T01:45:54.000Z,7.4
2023-02-21T01:47:10.000Z,7.4
2023-02-21T01:48:26.000Z,7.3
2023-02-21T01:49:42.000Z,7.3
2023-02-21T01:50:58.000Z,7.3
2023-02-21T01:52:14.000Z,7.3
2023-02-21T01:53:30.000Z,7.3
2023-02-21T01:54:46.000Z,7.3
2023-02-21T01:56:02.000Z,7.3
2023-02-21T01:57:18.000Z,7.3
2023-02-21T01:58:34.000Z,7.3
2023-02-21T01:59:50.000Z,7.3
2023-02-21T02:01:06.000Z,7.3
2023-02-21T02:02:23.000Z,7.2
2023-02-21T02:03:39.511Z,7.2
2023-02-21T02:04:55.000Z,7.2
2023-02-21T02:06:11.000Z,7.2
2023-02-21T02:07:27.000Z,7.2
2023-02-21T02:08:44.100Z,7.2
2023-02-21T02:09:59.262Z,7.1
2023-02-21T02:11:15.000Z,7.1
2023-02-21T02:12:31.000Z,7.1
2023-02-21T02:13:47.000Z,7.1
2023-02-21T02:15:03.000Z,7.1
2023-02-21T02:16:19.000Z,7
2023-02-21T02:17:35.000Z,7
2023-02-21T02:18:52.000Z,7
2023-02-21T02:21:24.582Z,7
2023-02-21T02:22:40.728Z,7
2023-02-21T02:23:56.000Z,6.9
2023-02-21T02:25:12.000Z,6.9
2023-02-21T02:26:27.000Z,6.9
2023-02-21T02:27:44.000Z,6.9
2023-02-21T02:29:00.000Z,6.9
2023-02-21T02:30:16.000Z,6.9
2023-02-21T02:31:32.000Z,6.9
2023-02-21T02:32:48.000Z,6.9
2023-02-21T02:34:04.000Z,7
2023-02-21T02:35:20.000Z,7
2023-02-21T02:36:37.000Z,7
2023-02-21T02:37:53.000Z,7
2023-02-21T02:39:09.000Z,7
2023-02-21T02:40:25.000Z,7
2023-02-21T02:41:41.000Z,7
2023-02-21T02:42:56.000Z,7
2023-02-21T02:44:13.000Z,7
2023-02-21T02:45:29.000Z,7
2023-02-21T02:46:45.000Z,7
2023-02-21T02:48:01.000Z,7
2023-02-21T02:49:17.000Z,7
2023-02-21T02:50:33.000Z,7
2023-02-21T02:51:49.000Z,7
2023-02-21T02:53:06.000Z,7
2023-02-21T02:54:22.000Z,7
2023-02-21T02:55:38.000Z,7
2023-02-21T02:56:54.000Z,7
2023-02-21T02:58:10.000Z,7
2023-02-21T02:59:25.000Z,7
2023-02-21T03:00:41.000Z,7
2023-02-21T03:01:58.000Z,7
2023-02-21T03:03:14.000Z,7
2023-02-21T03:04:30.000Z,7
2023-02-21T03:05:46.000Z,7
2023-02-21T03:07:02.000Z,7
2023-02-21T03:08:19.065Z,7
2023-02-21T03:09:35.220Z,7
2023-02-21T03:10:51.000Z,7
2023-02-21T03:12:07.000Z,7
2023-02-21T03:13:23.000Z,7
2023-02-21T03:14:39.000Z,7.1
2023-02-21T03:15:54.000Z,7.1
2023-02-21T03:17:10.000Z,7.1
2023-02-21T03:18:27.000Z,7.1
2023-02-21T03:19:43.000Z,7.1
2023-02-21T03:20:59.557Z,7.1
2023-02-21T03:22:15.000Z,7.1
2023-02-21T03:23:31.000Z,7.1
2023-02-21T03:24:47.000Z,7.1
2023-02-21T03:26:03.000Z,7.1
2023-02-21T03:27:20.000Z,7.1
2023-02-21T03:28:36.000Z,7.1
2023-02-21T03:29:52.000Z,7.1
2023-02-21T03:31:08.726Z,7.2
2023-02-21T03:32:23.890Z,7.2
2023-02-21T03:33:39.000Z,7.2
2023-02-21T03:34:55.000Z,7.2
2023-02-21T03:36:12.000Z,7.2
2023-02-21T03:37:28.475Z,7.2
2023-02-21T03:38:44.000Z,7.2
2023-02-21T03:40:00.000Z,7.2
2023-02-21T03:41:16.000Z,7.3
2023-02-21T03:42:32.000Z,7.3
2023-02-21T03:43:48.000Z,7.3
2023-02-21T03:45:05.000Z,7.3
2023-02-21T03:46:21.000Z,7.3
2023-02-21T03:47:37.656Z,7.3
2023-02-21T03:48:52.000Z,7.3
2023-02-21T03:50:08.000Z,7.3
2023-02-21T03:51:24.000Z,7.4
2023-02-21T03:52:41.000Z,7.4
2023-02-21T03:53:57.000Z,7.4
2023-02-21T03:55:13.000Z,7.4
2023-02-21T03:56:29.000Z,7.4
2023-02-21T03:57:45.000Z,7.4
2023-02-21T03:59:01.000Z,7.4
2023-02-21T04:00:17.000Z,7.4
2023-02-21T04:01:34.000Z,7.4
2023-02-21T04:02:50.000Z,7.4
2023-02-21T04:04:06.582Z,7.4
2023-02-21T04:05:21.000Z,7.4
2023-02-21T04:06:37.000Z,7.4
2023-02-21T04:07:53.000Z,7.4
2023-02-21T04:09:09.000Z,7.5
2023-02-21T04:10:26.000Z,7.5
2023-02-21T04:11:42.000Z,7.5
2023-02-21T04:12:58.623Z,7.5
2023-02-21T04:14:14.000Z,7.5
2023-02-21T04:15:30.000Z,7.5
2023-02-21T04:16:46.000Z,7.5
2023-02-21T04:18:02.000Z,7.5
2023-02-21T04:19:19.000Z,7.5
2023-02-21T04:20:35.000Z,7.5
2023-02-21T04:21:50.000Z,7.5
2023-02-21T04:23:06.000Z,7.5
2023-02-21T04:24:22.000Z,7.5
2023-02-21T04:25:38.000Z,7.5
2023-02-21T04:26:55.000Z,7.5
2023-02-21T04:28:11.000Z,7.5
2023-02-21T04:29:27.000Z,7.5
2023-02-21T04:30:43.000Z,7.5
2023-02-21T04:31:59.000Z,7.5
2023-02-21T04:33:15.000Z,7.5
2023-02-21T04:34:31.000Z,7.5
2023-02-21T04:35:48.000Z,7.5
2023-02-21T04:37:04.000Z,7.4
2023-02-21T04:38:19.000Z,7.5
2023-02-21T04:39:35.000Z,7.5
2023-02-21T04:40:51.000Z,7.5
2023-02-21T04:42:07.000Z,7.5
2023-02-21T04:43:23.000Z,7.5
2023-02-21T04:44:40.000Z,7.4
2023-02-21T04:45:56.000Z,7.4
2023-02-21T04:47:12.000Z,7.4
2023-02-21T04:48:28.770Z,7.4
2023-02-21T04:49:44.000Z,7.4
2023-02-21T04:51:00.000Z,7.4
2023-02-21T04:52:16.000Z,7.4
2023-02-21T04:53:33.000Z,7.4
2023-02-21T04:54:48.000Z,7.4
2023-02-21T04:56:04.000Z,7.4
2023-02-21T04:57:20.817Z,7.4
2023-02-21T04:58:36.000Z,7.4
2023-02-21T04:59:52.000Z,7.4
2023-02-21T05:01:09.263Z,7.3
2023-02-21T05:02:25.000Z,7.3
2023-02-21T05:03:41.000Z,7.3
2023-02-21T05:04:57.000Z,7.3
2023-02-21T05:06:13.000Z,7.3
2023-02-21T05:07:29.000Z,7.3
2023-02-21T05:08:45.000Z,7.3
2023-02-21T05:10:02.000Z,7.3
2023-02-21T05:11:17.000Z,7.2
2023-02-21T05:12:33.599Z,7.2
2023-02-21T05:13:49.000Z,7.2
2023-02-21T05:15:05.000Z,7.2
2023-02-21T05:16:21.000Z,7.2
2023-02-21T05:17:38.187Z,7.1
2023-02-21T05:18:54.000Z,7.1
2023-02-21T05:20:10.000Z,7.1
2023-02-21T05:21:26.000Z,7.1
2023-02-21T05:22:42.000Z,7.1
2023-02-21T05:23:58.000Z,7.1
2023-02-21T05:25:14.000Z,7
2023-02-21T05:26:30.000Z,7
2023-02-21T05:27:46.000Z,7
2023-02-21T05:29:02.000Z,7
2023-02-21T05:30:18.000Z,7
2023-02-21T05:31:34.000Z,7
2023-02-21T05:32:50.000Z,7
2023-02-21T05:34:06.000Z,7
2023-02-21T05:35:22.000Z,6.9
2023-02-21T05:36:38.000Z,6.9
2023-02-21T05:37:54.000Z,6.9
2023-02-21T05:39:10.000Z,6.9
2023-02-21T05:40:26.000Z,6.9
2023-02-21T05:41:42.000Z,6.9
2023-02-21T05:42:58.000Z,6.9
2023-02-21T05:44:15.000Z,6.9
2023-02-21T05:45:31.000Z,6.9
2023-02-21T05:46:47.000Z,6.9
2023-02-21T05:48:03.000Z,6.9
2023-02-21T05:49:19.888Z,6.9
2023-02-21T05:50:35.000Z,6.9
2023-02-21T05:51:50.000Z,7
2023-02-21T05:53:07.000Z,7
2023-02-21T05:54:23.000Z,7
2023-02-21T05:55:39.000Z,7
2023-02-21T05:56:55.000Z,7
2023-02-21T05:58:11.000Z,7
2023-02-21T05:59:27.000Z,7
2023-02-21T06:00:43.000Z,7
2023-02-21T06:02:00.000Z,7
2023-02-21T06:03:16.000Z,7
2023-02-21T06:04:32.000Z,7
2023-02-21T06:05:48.000Z,7
2023-02-21T06:07:04.000Z,6.9
2023-02-21T06:08:19.000Z,6.9
2023-02-21T06:09:36.000Z,6.9
2023-02-21T06:10:52.000Z,6.9
2023-02-21T06:12:08.000Z,6.9
2023-02-21T06:13:24.000Z,6.9
2023-02-21T06:14:40.000Z,6.9
2023-02-21T06:15:56.000Z,6.9
2023-02-21T06:17:12.000Z,6.9
2023-02-21T06:18:29.000Z,6.9
2023-02-21T06:19:45.000Z,6.9
2023-02-21T06:21:01.562Z,6.9
2023-02-21T06:22:17.000Z,6.9
2023-02-21T06:23:33.000Z,6.9
2023-02-21T06:24:48.000Z,6.9
2023-02-21T06:26:04.000Z,6.9
2023-02-21T06:27:21.000Z,6.9
2023-02-21T06:28:37.000Z,6.9
2023-02-21T06:29:53.000Z,6.9
2023-02-21T06:31:09.000Z,6.9
2023-02-21T06:32:25.000Z,6.9
2023-02-21T06:33:41.000Z,6.9
2023-02-21T06:34:57.000Z,6.9
2023-02-21T06:36:14.000Z,6.9
2023-02-21T06:37:30.000Z,6.9
2023-02-21T06:38:46.613Z,6.9
2023-02-21T06:40:02.000Z,7
2023-02-21T06:41:17.000Z,7
2023-02-21T06:42:33.000Z,7
2023-02-21T06:43:49.000Z,7
2023-02-21T06:45:06.000Z,7.1
2023-02-21T06:46:22.000Z,7.1
2023-02-21T06:47:38.648Z,7.1
2023-02-21T06:48:54.000Z,7.1
2023-02-21T06:50:10.000Z,7.2
2023-02-21T06:51:27.082Z,7.2
2023-02-21T06:52:43.000Z,7.2
2023-02-21T06:53:59.000Z,7.2
2023-02-21T06:55:15.520Z,7.3
2023-02-21T06:56:31.000Z,7.3
2023-02-21T06:57:46.000Z,7.3
2023-02-21T06:59:02.978Z,7.3
2023-02-21T07:00:19.125Z,7.3
2023-02-21T07:01:35.000Z,7.3
2023-02-21T07:02:51.000Z,7.3
2023-02-21T07:04:07.000Z,7.3
2023-02-21T07:05:23.000Z,7.3
2023-02-21T07:06:39.000Z,7.4
2023-02-21T07:07:55.987Z,7.4
2023-02-21T07:09:11.000Z,7.4
2023-02-21T07:10:28.000Z,7.4
2023-02-21T07:11:44.000Z,7.4
2023-02-21T07:13:00.000Z,7.5
2023-02-21T07:14:15.729Z,7.5
2023-02-21T07:15:31.000Z,7.5
2023-02-21T07:16:47.000Z,7.6
2023-02-21T07:18:03.000Z,7.6
2023-02-21T07:19:20.000Z,7.6
2023-02-21T07:20:36.000Z,7.6
2023-02-21T07:21:52.000Z,7.7
2023-02-21T07:23:08.000Z,7.7
2023-02-21T07:24:24.000Z,7.7
2023-02-21T07:25:40.000Z,7.7
2023-02-21T07:26:56.000Z,7.7
2023-02-21T07:28:13.000Z,7.8
2023-02-21T07:29:29.000Z,7.8
2023-02-21T07:30:44.000Z,7.8
2023-02-21T07:32:00.000Z,7.8
2023-02-21T07:33:16.000Z,7.8
2023-02-21T07:34:32.000Z,7.8
2023-02-21T07:35:49.000Z,7.8
2023-02-21T07:37:05.369Z,7.9
2023-02-21T07:38:21.000Z,7.9
2023-02-21T07:39:37.000Z,7.9
2023-02-21T07:40:53.000Z,7.9
2023-02-21T07:42:09.000Z,7.9
2023-02-21T07:43:25.000Z,8
2023-02-21T07:44:42.000Z,8
2023-02-21T07:45:58.000Z,8.1
2023-02-21T07:47:13.000Z,8.1
2023-02-21T07:48:29.000Z,8.1
2023-02-21T07:49:45.000Z,8.2
2023-02-21T07:51:01.000Z,8.2
2023-02-21T07:52:17.000Z,8.3
2023-02-21T07:53:34.000Z,8.3
2023-02-21T07:54:50.000Z,8.3
2023-02-21T07:56:06.570Z,8.4
2023-02-21T07:57:22.000Z,8.4
2023-02-21T07:58:38.000Z,8.4
2023-02-21T07:59:54.000Z,8.3
2023-02-21T08:01:10.000Z,8.3
2023-02-21T08:02:27.301Z,8.3
2023-02-21T08:03:42.000Z,8.3
2023-02-21T08:04:58.000Z,8.2
2023-02-21T08:06:14.000Z,8.2
2023-02-21T08:07:30.000Z,8.2
2023-02-21T08:08:46.000Z,8.1
2023-02-21T08:10:02.000Z,8.1
2023-02-21T08:11:19.000Z,8.1
2023-02-21T08:12:35.000Z,8
2023-02-21T08:13:51.000Z,8
2023-02-21T08:15:07.000Z,8
2023-02-21T08:16:23.000Z,8
2023-02-21T08:17:39.000Z,8
2023-02-21T08:18:55.000Z,8
2023-02-21T08:20:11.000Z,8
2023-02-21T08:21:27.000Z,8
2023-02-21T08:22:43.658Z,8
2023-02-21T08:23:59.000Z,8.1
2023-02-21T08:25:15.000Z,8.1
2023-02-21T08:26:31.000Z,8.1
2023-02-21T08:27:48.000Z,8.1
2023-02-21T08:29:04.000Z,8.1
2023-02-21T08:30:20.000Z,8.2
2023-02-21T08:31:36.000Z,8.2
2023-02-21T08:32:52.000Z,8.2
2023-02-21T08:34:08.000Z,8.3
2023-02-21T08:35:24.000Z,8.3
2023-02-21T08:36:40.000Z,8.4
2023-02-21T08:37:56.000Z,8.5
2023-02-21T08:39:12.000Z,8.6
2023-02-21T08:40:28.000Z,8.6
2023-02-21T08:41:44.858Z,8.7
2023-02-21T08:43:00.000Z,8.8
2023-02-21T08:44:16.000Z,8.9
2023-02-21T08:45:33.299Z,9
2023-02-21T08:46:49.000Z,9
2023-02-21T08:48:05.000Z,9.1
2023-02-21T08:49:21.000Z,9.1
2023-02-21T08:50:37.000Z,9.2
2023-02-21T08:51:53.000Z,9.2
2023-02-21T08:53:08.000Z,9.2
2023-02-21T08:54:25.000Z,9.2
2023-02-21T08:55:41.000Z,9.3
2023-02-21T08:56:57.000Z,9.4
2023-02-21T08:58:13.761Z,9.4
2023-02-21T08:59:29.000Z,9.5
2023-02-21T09:00:46.056Z,9.6
2023-02-21T09:02:02.207Z,9.6
2023-02-21T09:03:18.000Z,9.7
2023-02-21T09:04:34.000Z,9.7
2023-02-21T09:05:50.000Z,9.8
2023-02-21T09:07:06.000Z,9.8
2023-02-21T09:08:22.000Z,9.9
2023-02-21T09:09:37.000Z,9.9
2023-02-21T09:10:54.000Z,10
2023-02-21T09:12:10.000Z,10
2023-02-21T09:13:26.000Z,10
2023-02-21T09:14:42.675Z,10.1
2023-02-21T09:15:58.000Z,10.1
2023-02-21T09:17:14.000Z,10.1
2023-02-21T09:18:30.000Z,10.1
2023-02-21T09:19:47.251Z,10.2
2023-02-21T09:21:03.000Z,10.2
2023-02-21T09:22:19.544Z,10.3
2023-02-21T09:23:35.695Z,10.4
2023-02-21T09:24:51.000Z,10.5
2023-02-21T09:26:07.000Z,10.5
2023-02-21T09:27:22.000Z,10.6
2023-02-21T09:28:39.000Z,10.6
2023-02-21T09:29:55.000Z,10.6
2023-02-21T09:31:11.000Z,10.6
2023-02-21T09:32:27.722Z,10.6
2023-02-21T09:34:59.000Z,10.6
2023-02-21T09:36:15.000Z,10.7
2023-02-21T09:37:32.000Z,10.7
2023-02-21T09:38:48.000Z,10.8
2023-02-21T09:40:04.000Z,10.9
2023-02-21T09:41:20.000Z,10.8
2023-02-21T09:42:36.000Z,10.8
2023-02-21T09:43:51.000Z,10.8
2023-02-21T09:45:07.000Z,10.8
2023-02-21T09:46:24.000Z,10.9
2023-02-21T09:47:40.000Z,10.9
2023-02-21T09:48:56.000Z,11
2023-02-21T09:50:11.000Z,10.9
2023-02-21T09:51:27.000Z,10.9
2023-02-21T09:52:44.091Z,10.9
2023-02-21T09:54:00.000Z,10.8
2023-02-21T09:55:16.384Z,10.8
2023-02-21T09:56:32.000Z,11
2023-02-21T09:57:48.000Z,11.1
2023-02-21T09:59:04.000Z,11.1
2023-02-21T10:00:20.000Z,11.1
2023-02-21T10:01:36.000Z,11.1
2023-02-21T10:02:53.000Z,11.1
2023-02-21T10:04:09.000Z,11
2023-02-21T10:05:25.000Z,11
2023-02-21T10:06:40.000Z,11
2023-02-21T10:07:56.000Z,11
2023-02-21T10:09:12.000Z,11
2023-02-21T10:10:28.000Z,11
2023-02-21T10:11:45.000Z,11
2023-02-21T10:13:01.000Z,11
2023-02-21T10:14:17.000Z,11
2023-02-21T10:15:33.000Z,11
2023-02-21T10:16:49.000Z,11
2023-02-21T10:18:06.009Z,11
2023-02-21T10:19:21.000Z,11.1
2023-02-21T10:20:38.306Z,11.2
2023-02-21T10:21:54.000Z,11.3
2023-02-21T10:23:09.000Z,11.4
2023-02-21T10:24:25.760Z,11.5
2023-02-21T10:25:41.000Z,11.5
2023-02-21T10:26:57.000Z,11.6
2023-02-21T10:28:14.189Z,11.7
2023-02-21T10:29:30.000Z,11.7
2023-02-21T10:30:46.000Z,11.8
2023-02-21T10:32:02.000Z,11.8
2023-02-21T10:33:18.000Z,11.8
2023-02-21T10:34:34.000Z,11.9
2023-02-21T10:35:50.000Z,11.9
2023-02-21T10:37:07.205Z,12
2023-02-21T10:38:23.000Z,12.1
2023-02-21T10:39:38.000Z,12.3
2023-02-21T10:40:54.000Z,12.4
2023-02-21T10:42:10.000Z,12.5
2023-02-21T10:43:26.721Z,12.8
2023-02-21T10:44:42.000Z,12.9
2023-02-21T10:45:59.000Z,13
2023-02-21T10:47:15.000Z,13
2023-02-21T10:48:31.000Z,13.3
2023-02-21T10:49:47.000Z,13.3
2023-02-21T10:51:03.000Z,13.7
2023-02-21T10:52:19.000Z,14
2023-02-21T10:53:35.000Z,14.3
2023-02-21T10:54:52.000Z,14.6
2023-02-21T10:56:07.000Z,14.6
2023-02-21T10:57:23.000Z,14.7
2023-02-21T10:58:39.000Z,14.6
2023-02-21T10:59:55.000Z,14.7
2023-02-21T11:01:11.000Z,14.9
2023-02-21T11:02:28.147Z,15.1
2023-02-21T11:03:44.000Z,15.3
2023-02-21T11:05:00.000Z,15.5
2023-02-21T11:06:16.583Z,15.7
2023-02-21T11:07:32.000Z,15.8
2023-02-21T11:08:48.000Z,15.5
2023-02-21T11:10:04.000Z,15.5
2023-02-21T11:11:21.171Z,15.4
2023-02-21T11:12:36.000Z,15.5
2023-02-21T11:13:52.000Z,15.5
2023-02-21T11:15:08.000Z,15.4
2023-02-21T11:16:24.000Z,15.3
2023-02-21T11:17:40.000Z,15.1
2023-02-21T11:18:56.000Z,15
2023-02-21T11:20:12.000Z,14.9
2023-02-21T11:21:29.000Z,14.8
2023-02-21T11:22:45.000Z,14.7
2023-02-21T11:24:01.000Z,14.6
2023-02-21T11:25:17.000Z,14.6
2023-02-21T11:26:33.934Z,14.5
2023-02-21T11:27:49.000Z,14.4
2023-02-21T11:29:05.000Z,14.3
2023-02-21T11:30:21.381Z,14.2
2023-02-21T11:31:37.000Z,14.1
2023-02-21T11:32:53.000Z,14
2023-02-21T11:34:09.000Z,13.9
2023-02-21T11:35:25.000Z,13.8
2023-02-21T11:36:41.000Z,13.7
2023-02-21T11:37:58.000Z,13.6
2023-02-21T11:39:14.000Z,13.5
2023-02-21T11:40:30.000Z,13.4
2023-02-21T11:41:46.000Z,13.3
2023-02-21T11:43:02.000Z,13.3
2023-02-21T11:44:18.000Z,13.3
2023-02-21T11:45:33.000Z,13.3
2023-02-21T11:46:50.000Z,13.4
2023-02-21T11:48:06.000Z,13.7
2023-02-21T11:49:22.000Z,13.9
2023-02-21T11:50:38.000Z,14
2023-02-21T11:51:54.000Z,14.1
2023-02-21T11:53:10.000Z,14.4
2023-02-21T11:54:26.000Z,14.6
2023-02-21T11:55:43.000Z,14.7
2023-02-21T11:56:59.000Z,14.9
2023-02-21T11:58:15.000Z,14.9
2023-02-21T11:59:31.000Z,15
2023-02-21T12:00:47.000Z,15.1
2023-02-21T12:02:02.000Z,15.3
2023-02-21T12:03:19.193Z,15.3
2023-02-21T12:04:35.000Z,15.6
2023-02-21T12:05:51.000Z,15.8
2023-02-21T12:07:07.000Z,16
2023-02-21T12:08:23.000Z,16.2
2023-02-21T12:09:39.000Z,16.4
2023-02-21T12:10:55.000Z,16.5
2023-02-21T12:12:11.000Z,16.3
2023-02-21T12:13:28.000Z,16.2
2023-02-21T12:14:44.000Z,16.1
2023-02-21T12:16:00.000Z,15.9
2023-02-21T12:17:16.000Z,15.8
2023-02-21T12:18:31.000Z,15.7
2023-02-21T12:19:47.000Z,15.5
2023-02-21T12:21:04.000Z,15.6
2023-02-21T12:22:20.000Z,15.7
2023-02-21T12:23:36.000Z,15.6
2023-02-21T12:24:52.685Z,15.6
2023-02-21T12:26:08.000Z,15.5
2023-02-21T12:27:24.000Z,15.5
2023-02-21T12:28:40.000Z,15.4
2023-02-21T12:29:57.000Z,15.5
2023-02-21T12:31:13.000Z,15.5
2023-02-21T12:32:29.000Z,15.2
2023-02-21T12:33:45.699Z,15
2023-02-21T12:35:00.000Z,14.8
2023-02-21T12:36:16.000Z,14.6
2023-02-21T12:37:32.000Z,14.5
2023-02-21T12:38:49.000Z,14.3
2023-02-21T12:40:05.000Z,14.2
2023-02-21T12:41:21.585Z,14.1
2023-02-21T12:42:37.731Z,14
2023-02-21T12:43:53.000Z,14
2023-02-21T12:45:09.000Z,14
2023-02-21T12:46:25.000Z,14
2023-02-21T12:47:42.000Z,13.9
2023-02-21T12:48:58.000Z,13.9
2023-02-21T12:50:14.607Z,13.8
2023-02-21T12:51:30.000Z,13.7
2023-02-21T12:52:45.000Z,13.6
2023-02-21T12:54:01.000Z,13.5
2023-02-21T12:55:17.000Z,13.4
2023-02-21T12:56:34.000Z,13.3
2023-02-21T12:57:50.000Z,13.2
2023-02-21T12:59:06.000Z,13.2
2023-02-21T13:00:22.784Z,13.2
2023-02-21T13:01:38.938Z,13.1
2023-02-21T13:02:54.000Z,13.1
2023-02-21T13:04:11.000Z,13.2
2023-02-21T13:05:27.000Z,13.2
2023-02-21T13:06:43.000Z,13.2
2023-02-21T13:07:59.000Z,13.2
2023-02-21T13:09:14.000Z,13.2
2023-02-21T13:10:30.000Z,13.3
2023-02-21T13:11:46.000Z,13.3
2023-02-21T13:13:03.000Z,13.3
2023-02-21T13:14:19.401Z,13.4
2023-02-21T13:15:35.000Z,13.5
2023-02-21T13:16:51.000Z,13.5
2023-02-21T13:18:07.000Z,13.6
2023-02-21T13:19:23.000Z,13.6
2023-02-21T13:20:39.000Z,13.7
2023-02-21T13:21:56.000Z,13.6
2023-02-21T13:23:12.000Z,13.6
2023-02-21T13:24:28.000Z,13.6
2023-02-21T13:25:43.000Z,13.7
2023-02-21T13:26:59.871Z,13.7
2023-02-21T13:28:15.000Z,13.6
2023-02-21T13:29:31.000Z,13.7
2023-02-21T13:30:48.000Z,13.8
2023-02-21T13:32:04.000Z,13.8
2023-02-21T13:33:20.000Z,14
2023-02-21T13:34:36.000Z,14.2
2023-02-21T13:35:52.000Z,14.4
2023-02-21T13:37:09.040Z,14.5
2023-02-21T13:38:24.000Z,14.4
2023-02-21T13:39:41.000Z,14.3
2023-02-21T13:40:57.473Z,14.3
2023-02-21T13:42:12.000Z,14.1
2023-02-21T13:43:28.780Z,14.1
2023-02-21T13:44:44.000Z,14.1
2023-02-21T13:46:01.075Z,14.1
2023-02-21T13:47:16.000Z,14
2023-02-21T13:48:33.000Z,13.9
2023-02-21T13:49:49.000Z,13.9
2023-02-21T13:51:05.000Z,13.8
2023-02-21T13:52:21.000Z,13.7
2023-02-21T13:53:37.000Z,13.6
2023-02-21T13:54:53.000Z,13.5
2023-02-21T13:56:10.000Z,13.5
2023-02-21T13:57:26.000Z,13.4
2023-02-21T13:58:41.538Z,13.5
2023-02-21T13:59:57.703Z,13.5
2023-02-21T14:01:13.000Z,13.4
2023-02-21T14:02:29.000Z,13.2
2023-02-21T14:03:45.000Z,13.2
2023-02-21T14:05:01.000Z,13.1
2023-02-21T14:06:17.000Z,13
2023-02-21T14:07:33.584Z,13
2023-02-21T14:08:49.000Z,13
2023-02-21T14:10:05.000Z,12.8
2023-02-21T14:11:21.000Z,12.7
2023-02-21T14:12:37.000Z,12.6
2023-02-21T14:13:54.000Z,12.5
2023-02-21T14:15:10.448Z,12.3
2023-02-21T14:16:26.000Z,12.2
2023-02-21T14:17:42.000Z,12.2
2023-02-21T14:18:58.000Z,12.2
2023-02-21T14:20:15.031Z,12.2
2023-02-21T14:21:29.000Z,12.2
2023-02-21T14:22:46.000Z,12.3
2023-02-21T14:24:02.000Z,12.2
2023-02-21T14:25:18.633Z,12.2
2023-02-21T14:26:34.000Z,12.2
2023-02-21T14:27:50.000Z,12.2
2023-02-21T14:29:06.000Z,12.2
2023-02-21T14:30:22.000Z,12.2
2023-02-21T14:31:39.000Z,12.2
2023-02-21T14:32:55.000Z,12.2
2023-02-21T14:34:11.000Z,12.1
2023-02-21T14:35:27.000Z,12.1
2023-02-21T14:36:43.000Z,12
2023-02-21T14:37:59.102Z,12
2023-02-21T14:39:15.000Z,12
2023-02-21T14:40:31.000Z,11.9
2023-02-21T14:41:47.000Z,11.9
2023-02-21T14:43:03.000Z,11.9
2023-02-21T14:44:19.000Z,11.9
2023-02-21T14:45:35.000Z,12
2023-02-21T14:46:51.000Z,12
2023-02-21T14:48:08.000Z,12.1
2023-02-21T14:49:24.409Z,12.2
2023-02-21T14:50:40.557Z,12.2
2023-02-21T14:51:56.000Z,12.3
2023-02-21T14:53:12.846Z,12.4
2023-02-21T14:54:27.000Z,12.4
2023-02-21T14:55:43.000Z,12.4
2023-02-21T14:56:59.000Z,12.4
2023-02-21T14:58:16.000Z,12.5
2023-02-21T14:59:32.000Z,12.5
2023-02-21T15:00:48.000Z,12.5
2023-02-21T15:02:04.000Z,12.5
2023-02-21T15:03:20.000Z,12.5
2023-02-21T15:04:36.000Z,12.5
2023-02-21T15:05:52.000Z,12.5
2023-02-21T15:07:09.000Z,12.5
2023-02-21T15:08:25.000Z,12.5
2023-02-21T15:09:41.000Z,12.5
2023-02-21T15:10:56.000Z,12.5
2023-02-21T15:12:12.000Z,12.5
2023-02-21T15:13:29.000Z,12.5
2023-02-21T15:14:45.000Z,12.4
2023-02-21T15:16:01.000Z,12.4
2023-02-21T15:17:17.000Z,12.3
2023-02-21T15:18:33.000Z,12.3
2023-02-21T15:19:49.939Z,12.2
2023-02-21T15:21:05.000Z,12.2
2023-02-21T15:22:22.000Z,12.2
2023-02-21T15:23:38.000Z,12.1
2023-02-21T15:24:54.000Z,12.1
2023-02-21T15:26:10.669Z,12.1
2023-02-21T15:27:25.000Z,12.1
2023-02-21T15:28:41.000Z,12.1
2023-02-21T15:29:57.000Z,12.1
2023-02-21T15:31:14.000Z,12.1
2023-02-21T15:32:30.000Z,12.1
2023-02-21T15:33:46.000Z,12.1
2023-02-21T15:35:02.000Z,12.1
2023-02-21T15:36:18.862Z,12.1
2023-02-21T15:37:34.000Z,12.1
2023-02-21T15:38:50.000Z,12
2023-02-21T15:40:07.000Z,12
2023-02-21T15:41:23.000Z,12
2023-02-21T15:42:39.000Z,11.9
2023-02-21T15:43:54.000Z,11.9
2023-02-21T15:45:10.000Z,11.8
2023-02-21T15:46:26.000Z,11.8
2023-02-21T15:47:42.000Z,11.7
2023-02-21T15:48:59.000Z,11.7
2023-02-21T15:50:15.501Z,11.7
2023-02-21T15:51:31.634Z,11.6
2023-02-21T15:52:47.000Z,11.6
2023-02-21T15:54:03.000Z,11.5
2023-02-21T15:55:19.000Z,11.5
2023-02-21T15:56:35.000Z,11.4
2023-02-21T15:57:52.000Z,11.4
2023-02-21T15:59:08.000Z,11.3
2023-02-21T16:00:23.000Z,11.3
2023-02-21T16:01:39.000Z,11.2
2023-02-21T16:02:55.000Z,11.2
2023-02-21T16:04:11.000Z,11.1
2023-02-21T16:05:28.000Z,11.1
2023-02-21T16:08:00.000Z,11
2023-02-21T16:09:16.000Z,10.9
2023-02-21T16:10:32.852Z,10.8
2023-02-21T16:11:48.000Z,10.8
2023-02-21T16:13:04.000Z,10.7
2023-02-21T16:14:21.000Z,10.6
2023-02-21T16:15:37.438Z,10.6
2023-02-21T16:16:52.000Z,10.5
2023-02-21T16:18:08.748Z,10.4
2023-02-21T16:19:24.894Z,10.3
2023-02-21T16:20:40.000Z,10.3
2023-02-21T16:21:56.000Z,10.2
2023-02-21T16:23:13.000Z,10.2
2023-02-21T16:24:29.000Z,10.1
2023-02-21T16:25:45.000Z,10.1
2023-02-21T16:27:01.000Z,10
2023-02-21T16:28:17.000Z,10
2023-02-21T16:29:33.000Z,9.9
2023-02-21T16:30:50.220Z,9.9
2023-02-21T16:32:06.000Z,9.8
2023-02-21T16:33:21.000Z,9.8
2023-02-21T16:34:37.000Z,9.7
2023-02-21T16:35:53.817Z,9.6
2023-02-21T16:37:09.000Z,9.6
2023-02-21T16:38:25.000Z,9.5
2023-02-21T16:39:42.000Z,9.4
2023-02-21T16:40:58.000Z,9.4
2023-02-21T16:43:30.695Z,9.2
2023-02-21T16:44:46.000Z,9.2
2023-02-21T16:46:02.991Z,9.1
2023-02-21T16:47:18.000Z,9.1
2023-02-21T16:48:35.000Z,9
2023-02-21T16:49:50.000Z,9
2023-02-21T16:51:06.000Z,9
2023-02-21T16:52:22.000Z,8.9
2023-02-21T16:53:38.000Z,8.9
2023-02-21T16:54:54.000Z,8.8
2023-02-21T16:56:10.000Z,8.8
2023-02-21T16:57:27.000Z,8.8
2023-02-21T16:58:43.479Z,8.7
2023-02-21T16:59:59.000Z,8.7
2023-02-21T17:01:15.000Z,8.6
2023-02-21T17:02:31.000Z,8.6
2023-02-21T17:03:47.000Z,8.5
2023-02-21T17:05:03.000Z,8.5
2023-02-21T17:06:19.000Z,8.5
2023-02-21T17:07:35.000Z,8.4
2023-02-21T17:08:51.000Z,8.4
2023-02-21T17:10:07.000Z,8.3
2023-02-21T17:11:23.000Z,8.3
2023-02-21T17:12:39.000Z,8.2
2023-02-21T17:13:56.000Z,8.2
2023-02-21T17:15:12.000Z,8.1
2023-02-21T17:16:28.000Z,8.1
2023-02-21T17:17:44.000Z,8.1
2023-02-21T17:19:00.000Z,8
2023-02-21T17:20:16.000Z,8
2023-02-21T17:21:32.000Z,7.9
2023-02-21T17:22:48.000Z,7.9
2023-02-21T17:24:04.000Z,7.8
2023-02-21T17:25:20.000Z,7.8
2023-02-21T17:26:36.000Z,7.8
2023-02-21T17:27:52.000Z,7.7